Piedmont, SD

6:30 AM MDT on September 16, 2014 (GMT -0600)
Ellsworth Air Force Base | Change Station
CLOSE
Current Station
Airport
Location: Ellsworth AFB,
Elevation: 3278 ft
Nearby Weather Stations

Elev 3278 ft 44.15 °N, 103.10 °W | Updated 32 minutes ago

Clear
Clear
45 °F
Feels Like 45 °F
N
2
Wind Variable Wind from NNW

Today
High -- | Low -- °F
--% Chance of Precip.
Yesterday
High -- | Low -- °F
Precip. -- in
6:33 AM 7:01 PM
Last Quarter, 46% visible
Pressure 30.03 in
Visibility 10.0 miles
Clouds Clear
Dew Point 41 °F
Humidity 84%
Rainfall 0.00 in
Snow Depth 0 in
UV 0 out of 12
Pollen 5.80 out of 12
Air Quality Not available.
Flu Activity Not available.
METAR KRCA 161158Z AUTO 33002KT 10SM CLR 07/05 A3003 RMK AO2 SLP168 T00740048 10131 20061 57006 $

More Conditions Fewer Conditions

Pressure 30.03 in
Visibility 10.0 miles
Clouds Clear
Dew Point 41 °F
Humidity 84%
Rainfall 0.00 in
Snow Depth 0 in
UV 0 out of 12
Pollen 5.80 out of 12
Air Quality Not available.
Flu Activity Not available.
METAR KRCA 161158Z AUTO 33002KT 10SM CLR 07/05 A3003 RMK AO2 SLP168 T00740048 10131 20061 57006 $

More Conditions Fewer Conditions

10-Day Weather Forecast

Almanac

Astronomy

Sep. 16, 2014 Rise Set
Actual Time 6:33 AM MDT 7:01 PM MDT
Civil Twilight 6:04 AM MDT 7:30 PM MDT
Nautical Twilight 5:29 AM MDT 8:04 PM MDT
Astronomical Twilight 4:54 AM MDT 8:40 PM MDT
Moon No Moon Rise 2:36 PM MDT
Length of Visible Light 13h 26m
Length of Day
12h 28m
Tomorrow will be 3m 2s shorter.
Last Quarter, 46% of the Moon is Illuminated
Today
Last Quarter
Sep 24
New
Oct 1
First Quarter
Oct 8
Full
Oct 15
Last Quarter

Today's Extremes

State Highs State Lows

Community

WunderPhotos

Upload Photos

1,753,754 photos uploaded!

Nearby

Snow Depth

Station Depth Elevation
Blind Park 0 in 6890 ft

Earthquake Activity

City Distance Mag. Time & Date
No recent earthquake activity has been reported nearby.
Minimum magnitude displayed is 2.5.

Coastal Water Temperatures

Place Temperature
No Stations Reporting

Nearby Weather Stations